sensor_id;sensor_type;location;lat;lon;timestamp;temperature;humidity
27858;DHT22;16852;51.446;6.528;2022-10-19T00:00:07;12.50;99.90
27858;DHT22;16852;51.446;6.528;2022-10-19T00:02:07;12.50;99.90
27858;DHT22;16852;51.446;6.528;2022-10-19T00:04:08;12.40;99.90
27858;DHT22;16852;51.446;6.528;2022-10-19T00:06:23;12.40;99.90
27858;DHT22;16852;51.446;6.528;2022-10-19T00:08:25;12.40;99.90
27858;DHT22;16852;51.446;6.528;2022-10-19T00:10:26;12.40;99.90
27858;DHT22;16852;51.446;6.528;2022-10-19T00:12:26;12.30;99.90
27858;DHT22;16852;51.446;6.528;2022-10-19T00:14:27;12.30;99.90
27858;DHT22;16852;51.446;6.528;2022-10-19T00:16:31;12.30;99.90
27858;DHT22;16852;51.446;6.528;2022-10-19T00:18:32;12.30;99.90
27858;DHT22;16852;51.446;6.528;2022-10-19T00:20:34;12.30;99.90
27858;DHT22;16852;51.446;6.528;2022-10-19T00:22:35;12.30;99.90
27858;DHT22;16852;51.446;6.528;2022-10-19T00:24:35;12.20;99.90
27858;DHT22;16852;51.446;6.528;2022-10-19T00:26:37;12.20;99.90
27858;DHT22;16852;51.446;6.528;2022-10-19T00:28:38;12.30;99.90
27858;DHT22;16852;51.446;6.528;2022-10-19T00:30:38;12.20;99.90
27858;DHT22;16852;51.446;6.528;2022-10-19T00:32:39;12.20;99.90
27858;DHT22;16852;51.446;6.528;2022-10-19T00:34:40;12.20;99.90
27858;DHT22;16852;51.446;6.528;2022-10-19T00:36:40;12.20;99.90
27858;DHT22;16852;51.446;6.528;2022-10-19T00:38:41;12.20;99.90
27858;DHT22;16852;51.446;6.528;2022-10-19T00:40:42;12.20;99.90
27858;DHT22;16852;51.446;6.528;2022-10-19T00:42:43;12.20;99.90
27858;DHT22;16852;51.446;6.528;2022-10-19T00:46:46;12.10;99.90
27858;DHT22;16852;51.446;6.528;2022-10-19T00:48:49;12.10;99.90
27858;DHT22;16852;51.446;6.528;2022-10-19T00:50:53;12.10;99.90
27858;DHT22;16852;51.446;6.528;2022-10-19T00:52:55;12.10;99.90
27858;DHT22;16852;51.446;6.528;2022-10-19T00:54:57;12.10;99.90
27858;DHT22;16852;51.446;6.528;2022-10-19T00:56:59;12.10;99.90
27858;DHT22;16852;51.446;6.528;2022-10-19T00:59:02;12.00;99.90
27858;DHT22;16852;51.446;6.528;2022-10-19T01:01:04;12.00;99.90
27858;DHT22;16852;51.446;6.528;2022-10-19T01:03:08;12.10;99.90
27858;DHT22;16852;51.446;6.528;2022-10-19T01:05:09;12.00;99.90
27858;DHT22;16852;51.446;6.528;2022-10-19T01:07:11;12.00;99.90
27858;DHT22;16852;51.446;6.528;2022-10-19T01:09:12;12.00;99.90
27858;DHT22;16852;51.446;6.528;2022-10-19T01:13:23;12.00;99.90
27858;DHT22;16852;51.446;6.528;2022-10-19T01:15:36;12.00;99.90
27858;DHT22;16852;51.446;6.528;2022-10-19T01:24:22;12.00;99.90
27858;DHT22;16852;51.446;6.528;2022-10-19T01:36:20;11.90;99.90
27858;DHT22;16852;51.446;6.528;2022-10-19T01:38:24;11.80;99.90
27858;DHT22;16852;51.446;6.528;2022-10-19T01:40:32;11.80;99.90
27858;DHT22;16852;51.446;6.528;2022-10-19T01:42:41;11.80;99.90
27858;DHT22;16852;51.446;6.528;2022-10-19T01:45:07;11.80;99.90
27858;DHT22;16852;51.446;6.528;2022-10-19T01:47:32;11.80;99.90
27858;DHT22;16852;51.446;6.528;2022-10-19T01:49:41;11.80;99.90
27858;DHT22;16852;51.446;6.528;2022-10-19T01:51:50;11.80;99.90
27858;DHT22;16852;51.446;6.528;2022-10-19T01:53:57;11.70;99.90
27858;DHT22;16852;51.446;6.528;2022-10-19T01:56:00;11.70;99.90
27858;DHT22;16852;51.446;6.528;2022-10-19T01:58:06;11.70;99.90
27858;DHT22;16852;51.446;6.528;2022-10-19T02:00:08;11.60;99.90
27858;DHT22;16852;51.446;6.528;2022-10-19T02:02:10;11.60;99.90
27858;DHT22;16852;51.446;6.528;2022-10-19T02:04:16;11.60;99.90
27858;DHT22;16852;51.446;6.528;2022-10-19T02:06:18;11.60;99.90
27858;DHT22;16852;51.446;6.528;2022-10-19T02:08:25;11.50;99.90
27858;DHT22;16852;51.446;6.528;2022-10-19T02:10:28;11.50;99.90
27858;DHT22;16852;51.446;6.528;2022-10-19T02:12:30;11.50;99.90
27858;DHT22;16852;51.446;6.528;2022-10-19T02:14:36;11.50;99.90
27858;DHT22;16852;51.446;6.528;2022-10-19T02:16:56;11.50;99.90
27858;DHT22;16852;51.446;6.528;2022-10-19T02:18:59;11.50;99.90
27858;DHT22;16852;51.446;6.528;2022-10-19T02:21:02;11.50;99.90
27858;DHT22;16852;51.446;6.528;2022-10-19T02:23:07;11.50;99.90
27858;DHT22;16852;51.446;6.528;2022-10-19T02:25:08;11.50;99.90
27858;DHT22;16852;51.446;6.528;2022-10-19T02:27:09;11.40;99.90
27858;DHT22;16852;51.446;6.528;2022-10-19T02:29:13;11.40;99.90
27858;DHT22;16852;51.446;6.528;2022-10-19T02:31:14;11.50;99.90
27858;DHT22;16852;51.446;6.528;2022-10-19T02:33:15;11.50;99.90
27858;DHT22;16852;51.446;6.528;2022-10-19T02:35:16;11.40;99.90
27858;DHT22;16852;51.446;6.528;2022-10-19T02:37:16;11.40;99.90
27858;DHT22;16852;51.446;6.528;2022-10-19T02:39:17;11.40;99.90
27858;DHT22;16852;51.446;6.528;2022-10-19T02:41:43;11.40;99.90
27858;DHT22;16852;51.446;6.528;2022-10-19T02:43:48;11.40;99.90
27858;DHT22;16852;51.446;6.528;2022-10-19T02:46:39;11.40;99.90
27858;DHT22;16852;51.446;6.528;2022-10-19T02:48:33;11.30;99.90
27858;DHT22;16852;51.446;6.528;2022-10-19T02:50:35;11.30;99.90
27858;DHT22;16852;51.446;6.528;2022-10-19T02:52:36;11.30;99.90
27858;DHT22;16852;51.446;6.528;2022-10-19T02:54:38;11.30;99.90
27858;DHT22;16852;51.446;6.528;2022-10-19T02:56:39;11.30;99.90
27858;DHT22;16852;51.446;6.528;2022-10-19T02:58:40;11.30;99.90
27858;DHT22;16852;51.446;6.528;2022-10-19T03:00:41;11.30;99.90
27858;DHT22;16852;51.446;6.528;2022-10-19T03:02:41;11.20;99.90
27858;DHT22;16852;51.446;6.528;2022-10-19T03:04:42;11.20;99.90
27858;DHT22;16852;51.446;6.528;2022-10-19T03:06:44;11.20;99.90
27858;DHT22;16852;51.446;6.528;2022-10-19T03:08:44;11.20;99.90
27858;DHT22;16852;51.446;6.528;2022-10-19T03:10:45;11.10;99.90
27858;DHT22;16852;51.446;6.528;2022-10-19T03:12:45;11.10;99.90
27858;DHT22;16852;51.446;6.528;2022-10-19T03:14:46;11.10;99.90
27858;DHT22;16852;51.446;6.528;2022-10-19T03:16:47;11.10;99.90
27858;DHT22;16852;51.446;6.528;2022-10-19T03:18:48;11.10;99.90
27858;DHT22;16852;51.446;6.528;2022-10-19T03:20:49;11.10;99.90
27858;DHT22;16852;51.446;6.528;2022-10-19T03:22:49;11.10;99.90
27858;DHT22;16852;51.446;6.528;2022-10-19T03:24:50;11.10;99.90
27858;DHT22;16852;51.446;6.528;2022-10-19T03:26:51;11.10;99.90
27858;DHT22;16852;51.446;6.528;2022-10-19T03:28:51;11.00;99.90
27858;DHT22;16852;51.446;6.528;2022-10-19T03:30:52;11.00;99.90
27858;DHT22;16852;51.446;6.528;2022-10-19T03:32:53;10.90;99.90
27858;DHT22;16852;51.446;6.528;2022-10-19T03:34:53;10.70;99.90
27858;DHT22;16852;51.446;6.528;2022-10-19T03:36:54;10.60;99.90
27858;DHT22;16852;51.446;6.528;2022-10-19T03:38:58;10.60;99.90
27858;DHT22;16852;51.446;6.528;2022-10-19T03:40:58;10.50;99.90
27858;DHT22;16852;51.446;6.528;2022-10-19T03:42:59;10.40;99.90
27858;DHT22;16852;51.446;6.528;2022-10-19T03:44:59;10.30;99.90
27858;DHT22;16852;51.446;6.528;2022-10-19T03:47:00;10.20;99.90
27858;DHT22;16852;51.446;6.528;2022-10-19T03:49:01;10.20;99.90
27858;DHT22;16852;51.446;6.528;2022-10-19T03:51:05;10.10;99.90
27858;DHT22;16852;51.446;6.528;2022-10-19T03:53:06;10.00;99.90
27858;DHT22;16852;51.446;6.528;2022-10-19T03:55:07;9.90;99.90
27858;DHT22;16852;51.446;6.528;2022-10-19T03:57:07;10.00;99.90
27858;DHT22;16852;51.446;6.528;2022-10-19T03:59:11;9.90;99.90
27858;DHT22;16852;51.446;6.528;2022-10-19T04:01:15;9.90;99.90
27858;DHT22;16852;51.446;6.528;2022-10-19T04:03:16;9.80;99.90
27858;DHT22;16852;51.446;6.528;2022-10-19T04:05:16;9.70;99.90
27858;DHT22;16852;51.446;6.528;2022-10-19T04:07:17;9.70;99.90
27858;DHT22;16852;51.446;6.528;2022-10-19T04:09:19;9.70;99.90
27858;DHT22;16852;51.446;6.528;2022-10-19T04:11:21;9.70;99.90
27858;DHT22;16852;51.446;6.528;2022-10-19T04:13:22;9.70;99.90
27858;DHT22;16852;51.446;6.528;2022-10-19T04:15:23;9.70;99.90
27858;DHT22;16852;51.446;6.528;2022-10-19T04:17:24;9.80;99.90
27858;DHT22;16852;51.446;6.528;2022-10-19T04:19:24;9.80;99.90
27858;DHT22;16852;51.446;6.528;2022-10-19T04:21:31;9.80;99.90
27858;DHT22;16852;51.446;6.528;2022-10-19T04:23:34;9.80;99.90
27858;DHT22;16852;51.446;6.528;2022-10-19T04:25:35;9.70;99.90
27858;DHT22;16852;51.446;6.528;2022-10-19T04:27:36;9.70;99.90
27858;DHT22;16852;51.446;6.528;2022-10-19T04:29:36;9.70;99.90
27858;DHT22;16852;51.446;6.528;2022-10-19T04:31:38;9.70;99.90
27858;DHT22;16852;51.446;6.528;2022-10-19T04:33:39;9.70;99.90
27858;DHT22;16852;51.446;6.528;2022-10-19T04:35:39;9.60;99.90
27858;DHT22;16852;51.446;6.528;2022-10-19T04:37:40;9.70;99.90
27858;DHT22;16852;51.446;6.528;2022-10-19T04:39:41;9.70;99.90
27858;DHT22;16852;51.446;6.528;2022-10-19T04:41:42;9.70;99.90
27858;DHT22;16852;51.446;6.528;2022-10-19T04:43:43;9.80;99.90
27858;DHT22;16852;51.446;6.528;2022-10-19T04:45:44;9.90;99.90
27858;DHT22;16852;51.446;6.528;2022-10-19T04:47:45;9.90;99.90
27858;DHT22;16852;51.446;6.528;2022-10-19T04:49:45;9.90;99.90
27858;DHT22;16852;51.446;6.528;2022-10-19T04:51:46;10.00;99.90
27858;DHT22;16852;51.446;6.528;2022-10-19T04:53:47;10.10;99.90
27858;DHT22;16852;51.446;6.528;2022-10-19T04:55:47;10.20;99.90
27858;DHT22;16852;51.446;6.528;2022-10-19T04:57:48;10.20;99.90
27858;DHT22;16852;51.446;6.528;2022-10-19T04:59:49;10.30;99.90
27858;DHT22;16852;51.446;6.528;2022-10-19T05:01:49;10.30;99.90
27858;DHT22;16852;51.446;6.528;2022-10-19T05:03:57;10.40;99.90
27858;DHT22;16852;51.446;6.528;2022-10-19T05:05:58;10.30;99.90
27858;DHT22;16852;51.446;6.528;2022-10-19T05:07:59;10.40;99.90
27858;DHT22;16852;51.446;6.528;2022-10-19T05:10:00;10.40;99.90
27858;DHT22;16852;51.446;6.528;2022-10-19T05:12:01;10.40;99.90
27858;DHT22;16852;51.446;6.528;2022-10-19T05:14:01;10.40;99.90
27858;DHT22;16852;51.446;6.528;2022-10-19T05:16:04;10.50;99.90
27858;DHT22;16852;51.446;6.528;2022-10-19T05:18:05;10.50;99.90
27858;DHT22;16852;51.446;6.528;2022-10-19T05:20:06;10.50;99.90
27858;DHT22;16852;51.446;6.528;2022-10-19T05:22:07;10.50;99.90
27858;DHT22;16852;51.446;6.528;2022-10-19T05:24:10;10.50;99.90
27858;DHT22;16852;51.446;6.528;2022-10-19T05:26:14;10.50;99.90
27858;DHT22;16852;51.446;6.528;2022-10-19T05:28:16;10.50;99.90
27858;DHT22;16852;51.446;6.528;2022-10-19T05:30:18;10.50;99.90
27858;DHT22;16852;51.446;6.528;2022-10-19T05:32:20;10.60;99.90
27858;DHT22;16852;51.446;6.528;2022-10-19T05:34:21;10.60;99.90
27858;DHT22;16852;51.446;6.528;2022-10-19T05:36:30;10.60;99.90
27858;DHT22;16852;51.446;6.528;2022-10-19T05:38:33;10.50;99.90
27858;DHT22;16852;51.446;6.528;2022-10-19T05:40:34;10.50;99.90
27858;DHT22;16852;51.446;6.528;2022-10-19T05:42:34;10.50;99.90
27858;DHT22;16852;51.446;6.528;2022-10-19T05:44:35;10.50;99.90
27858;DHT22;16852;51.446;6.528;2022-10-19T05:46:36;10.60;99.90
27858;DHT22;16852;51.446;6.528;2022-10-19T05:48:37;10.50;99.90
27858;DHT22;16852;51.446;6.528;2022-10-19T05:50:38;10.60;99.90
27858;DHT22;16852;51.446;6.528;2022-10-19T05:52:39;10.60;99.90
27858;DHT22;16852;51.446;6.528;2022-10-19T05:54:40;10.50;99.90
27858;DHT22;16852;51.446;6.528;2022-10-19T05:56:41;10.50;99.90
27858;DHT22;16852;51.446;6.528;2022-10-19T05:58:42;10.50;99.90
27858;DHT22;16852;51.446;6.528;2022-10-19T06:00:42;10.50;99.90
27858;DHT22;16852;51.446;6.528;2022-10-19T06:02:43;10.50;99.90
27858;DHT22;16852;51.446;6.528;2022-10-19T06:04:43;10.50;99.90
27858;DHT22;16852;51.446;6.528;2022-10-19T06:06:44;10.50;99.90
27858;DHT22;16852;51.446;6.528;2022-10-19T06:08:45;10.50;99.90
27858;DHT22;16852;51.446;6.528;2022-10-19T06:10:46;10.50;99.90
27858;DHT22;16852;51.446;6.528;2022-10-19T06:12:47;10.40;99.90
27858;DHT22;16852;51.446;6.528;2022-10-19T06:14:49;10.40;99.90
27858;DHT22;16852;51.446;6.528;2022-10-19T06:16:50;10.50;99.90
27858;DHT22;16852;51.446;6.528;2022-10-19T06:18:52;10.40;99.90
27858;DHT22;16852;51.446;6.528;2022-10-19T06:20:53;10.40;99.90
27858;DHT22;16852;51.446;6.528;2022-10-19T06:22:53;10.40;99.90
27858;DHT22;16852;51.446;6.528;2022-10-19T06:24:54;10.40;99.90
27858;DHT22;16852;51.446;6.528;2022-10-19T06:26:55;10.40;99.90
27858;DHT22;16852;51.446;6.528;2022-10-19T06:28:57;10.30;99.90
27858;DHT22;16852;51.446;6.528;2022-10-19T06:30:59;10.40;99.90
27858;DHT22;16852;51.446;6.528;2022-10-19T06:33:00;10.40;99.90
27858;DHT22;16852;51.446;6.528;2022-10-19T06:35:00;10.30;99.90
27858;DHT22;16852;51.446;6.528;2022-10-19T06:37:01;10.40;99.90
27858;DHT22;16852;51.446;6.528;2022-10-19T06:39:02;10.40;99.90
27858;DHT22;16852;51.446;6.528;2022-10-19T06:41:03;10.40;99.90
27858;DHT22;16852;51.446;6.528;2022-10-19T06:43:03;10.40;99.90
27858;DHT22;16852;51.446;6.528;2022-10-19T06:45:08;10.40;99.90
27858;DHT22;16852;51.446;6.528;2022-10-19T06:47:09;10.30;99.90
27858;DHT22;16852;51.446;6.528;2022-10-19T06:49:11;10.30;99.90
27858;DHT22;16852;51.446;6.528;2022-10-19T06:51:12;10.20;99.90
27858;DHT22;16852;51.446;6.528;2022-10-19T06:53:13;10.10;99.90
27858;DHT22;16852;51.446;6.528;2022-10-19T06:55:13;9.90;99.90
27858;DHT22;16852;51.446;6.528;2022-10-19T06:57:14;9.80;99.90
27858;DHT22;16852;51.446;6.528;2022-10-19T06:59:15;9.60;99.90
27858;DHT22;16852;51.446;6.528;2022-10-19T07:01:16;9.60;99.90
27858;DHT22;16852;51.446;6.528;2022-10-19T07:03:17;9.50;99.90
27858;DHT22;16852;51.446;6.528;2022-10-19T07:05:18;9.50;99.90
27858;DHT22;16852;51.446;6.528;2022-10-19T07:07:18;9.40;99.90
27858;DHT22;16852;51.446;6.528;2022-10-19T07:09:19;9.50;99.90
27858;DHT22;16852;51.446;6.528;2022-10-19T07:11:22;9.60;99.90
27858;DHT22;16852;51.446;6.528;2022-10-19T07:13:22;9.60;99.90
27858;DHT22;16852;51.446;6.528;2022-10-19T07:15:23;9.60;99.90
27858;DHT22;16852;51.446;6.528;2022-10-19T07:17:24;9.70;99.90
27858;DHT22;16852;51.446;6.528;2022-10-19T07:19:25;9.70;99.90
27858;DHT22;16852;51.446;6.528;2022-10-19T07:21:26;9.80;99.90
27858;DHT22;16852;51.446;6.528;2022-10-19T07:23:28;9.90;99.90
27858;DHT22;16852;51.446;6.528;2022-10-19T07:25:29;9.90;99.90
27858;DHT22;16852;51.446;6.528;2022-10-19T07:27:30;10.00;99.90
27858;DHT22;16852;51.446;6.528;2022-10-19T07:29:30;10.00;99.90
27858;DHT22;16852;51.446;6.528;2022-10-19T07:31:31;10.00;99.90
27858;DHT22;16852;51.446;6.528;2022-10-19T07:33:32;10.10;99.90
27858;DHT22;16852;51.446;6.528;2022-10-19T07:35:33;10.20;99.90
27858;DHT22;16852;51.446;6.528;2022-10-19T07:37:33;10.20;99.90
27858;DHT22;16852;51.446;6.528;2022-10-19T07:39:35;10.20;99.90
27858;DHT22;16852;51.446;6.528;2022-10-19T07:41:35;10.20;99.90
27858;DHT22;16852;51.446;6.528;2022-10-19T07:43:36;10.30;99.90
27858;DHT22;16852;51.446;6.528;2022-10-19T07:45:37;10.40;99.90
27858;DHT22;16852;51.446;6.528;2022-10-19T07:47:37;10.40;99.90
27858;DHT22;16852;51.446;6.528;2022-10-19T07:49:38;10.40;99.90
27858;DHT22;16852;51.446;6.528;2022-10-19T07:51:39;10.60;99.90
27858;DHT22;16852;51.446;6.528;2022-10-19T07:53:40;10.70;99.90
27858;DHT22;16852;51.446;6.528;2022-10-19T07:55:41;10.80;99.90
27858;DHT22;16852;51.446;6.528;2022-10-19T07:57:41;11.00;99.90
27858;DHT22;16852;51.446;6.528;2022-10-19T07:59:42;11.10;99.90
27858;DHT22;16852;51.446;6.528;2022-10-19T08:01:42;11.50;99.90
27858;DHT22;16852;51.446;6.528;2022-10-19T08:03:45;11.80;99.90
27858;DHT22;16852;51.446;6.528;2022-10-19T08:05:46;12.20;99.90
27858;DHT22;16852;51.446;6.528;2022-10-19T08:07:46;12.60;99.90
27858;DHT22;16852;51.446;6.528;2022-10-19T08:09:47;12.80;99.90
27858;DHT22;16852;51.446;6.528;2022-10-19T08:11:47;13.00;99.90
27858;DHT22;16852;51.446;6.528;2022-10-19T08:13:48;13.20;99.90
27858;DHT22;16852;51.446;6.528;2022-10-19T08:15:49;13.50;99.90
27858;DHT22;16852;51.446;6.528;2022-10-19T08:17:49;13.80;99.90
27858;DHT22;16852;51.446;6.528;2022-10-19T08:19:50;14.10;99.90
27858;DHT22;16852;51.446;6.528;2022-10-19T08:21:51;14.20;99.90
27858;DHT22;16852;51.446;6.528;2022-10-19T08:23:51;14.10;99.90
27858;DHT22;16852;51.446;6.528;2022-10-19T08:25:57;14.30;99.90
27858;DHT22;16852;51.446;6.528;2022-10-19T08:27:58;14.50;99.90
27858;DHT22;16852;51.446;6.528;2022-10-19T08:29:59;14.50;99.90
27858;DHT22;16852;51.446;6.528;2022-10-19T08:31:59;14.50;99.90
27858;DHT22;16852;51.446;6.528;2022-10-19T08:34:00;14.40;99.90
27858;DHT22;16852;51.446;6.528;2022-10-19T08:36:04;14.50;99.90
27858;DHT22;16852;51.446;6.528;2022-10-19T08:38:05;14.50;99.90
27858;DHT22;16852;51.446;6.528;2022-10-19T08:40:12;14.20;99.90
27858;DHT22;16852;51.446;6.528;2022-10-19T08:42:20;14.10;99.90
27858;DHT22;16852;51.446;6.528;2022-10-19T08:48:38;13.80;99.90
27858;DHT22;16852;51.446;6.528;2022-10-19T08:50:44;13.80;99.90
27858;DHT22;16852;51.446;6.528;2022-10-19T08:52:50;13.60;99.90
27858;DHT22;16852;51.446;6.528;2022-10-19T08:54:55;13.70;99.90
27858;DHT22;16852;51.446;6.528;2022-10-19T08:57:12;13.60;99.90
27858;DHT22;16852;51.446;6.528;2022-10-19T08:59:44;13.50;99.90
27858;DHT22;16852;51.446;6.528;2022-10-19T09:01:57;13.60;99.90
27858;DHT22;16852;51.446;6.528;2022-10-19T09:04:27;13.60;99.90
27858;DHT22;16852;51.446;6.528;2022-10-19T09:09:04;13.70;99.90
27858;DHT22;16852;51.446;6.528;2022-10-19T09:11:07;13.70;99.90
27858;DHT22;16852;51.446;6.528;2022-10-19T09:13:29;13.70;99.90
27858;DHT22;16852;51.446;6.528;2022-10-19T09:15:41;13.60;99.90
27858;DHT22;16852;51.446;6.528;2022-10-19T09:17:43;13.60;99.90
27858;DHT22;16852;51.446;6.528;2022-10-19T09:19:43;13.70;99.90
27858;DHT22;16852;51.446;6.528;2022-10-19T09:21:49;13.60;99.90
27858;DHT22;16852;51.446;6.528;2022-10-19T09:24:04;13.70;99.90
27858;DHT22;16852;51.446;6.528;2022-10-19T09:26:16;13.70;99.90
27858;DHT22;16852;51.446;6.528;2022-10-19T09:28:42;13.70;99.90
27858;DHT22;16852;51.446;6.528;2022-10-19T09:30:45;13.60;99.90
27858;DHT22;16852;51.446;6.528;2022-10-19T09:32:54;13.50;99.90
27858;DHT22;16852;51.446;6.528;2022-10-19T09:35:03;13.80;99.90
27858;DHT22;16852;51.446;6.528;2022-10-19T09:37:04;13.70;99.90
27858;DHT22;16852;51.446;6.528;2022-10-19T09:39:05;13.80;99.90
27858;DHT22;16852;51.446;6.528;2022-10-19T09:41:17;13.70;99.90
27858;DHT22;16852;51.446;6.528;2022-10-19T09:43:19;13.70;99.90
27858;DHT22;16852;51.446;6.528;2022-10-19T09:45:41;13.70;99.90
27858;DHT22;16852;51.446;6.528;2022-10-19T09:47:46;13.80;99.90
27858;DHT22;16852;51.446;6.528;2022-10-19T09:49:48;13.80;99.90
27858;DHT22;16852;51.446;6.528;2022-10-19T09:51:52;13.70;99.90
27858;DHT22;16852;51.446;6.528;2022-10-19T09:53:53;13.80;99.90
27858;DHT22;16852;51.446;6.528;2022-10-19T09:56:06;13.90;99.90
27858;DHT22;16852;51.446;6.528;2022-10-19T10:00:25;13.80;99.90
27858;DHT22;16852;51.446;6.528;2022-10-19T10:02:31;14.00;99.90
27858;DHT22;16852;51.446;6.528;2022-10-19T10:04:32;14.10;99.90
27858;DHT22;16852;51.446;6.528;2022-10-19T10:06:38;14.10;99.90
27858;DHT22;16852;51.446;6.528;2022-10-19T10:08:45;14.10;99.90
27858;DHT22;16852;51.446;6.528;2022-10-19T10:10:53;14.00;99.90
27858;DHT22;16852;51.446;6.528;2022-10-19T10:12:57;13.90;99.90
27858;DHT22;16852;51.446;6.528;2022-10-19T10:14:58;14.00;99.90
27858;DHT22;16852;51.446;6.528;2022-10-19T10:17:06;14.10;99.90
27858;DHT22;16852;51.446;6.528;2022-10-19T10:19:10;14.00;99.90
27858;DHT22;16852;51.446;6.528;2022-10-19T10:21:30;14.20;99.90
27858;DHT22;16852;51.446;6.528;2022-10-19T10:23:33;14.30;99.90
27858;DHT22;16852;51.446;6.528;2022-10-19T10:25:36;14.20;99.90
27858;DHT22;16852;51.446;6.528;2022-10-19T10:27:38;14.30;99.90
27858;DHT22;16852;51.446;6.528;2022-10-19T10:29:39;14.30;99.90
27858;DHT22;16852;51.446;6.528;2022-10-19T10:34:03;14.30;99.90
27858;DHT22;16852;51.446;6.528;2022-10-19T10:36:09;14.20;99.90
27858;DHT22;16852;51.446;6.528;2022-10-19T10:38:17;14.30;99.90
27858;DHT22;16852;51.446;6.528;2022-10-19T10:40:30;14.30;99.90
27858;DHT22;16852;51.446;6.528;2022-10-19T10:42:40;14.40;99.90
27858;DHT22;16852;51.446;6.528;2022-10-19T10:44:49;14.40;99.90
27858;DHT22;16852;51.446;6.528;2022-10-19T10:46:58;14.40;99.90
27858;DHT22;16852;51.446;6.528;2022-10-19T10:49:04;14.50;99.90
27858;DHT22;16852;51.446;6.528;2022-10-19T10:53:42;14.60;99.90
27858;DHT22;16852;51.446;6.528;2022-10-19T10:55:54;14.70;99.90
27858;DHT22;16852;51.446;6.528;2022-10-19T10:58:16;14.80;99.90
27858;DHT22;16852;51.446;6.528;2022-10-19T11:00:18;14.80;99.90
27858;DHT22;16852;51.446;6.528;2022-10-19T11:04:44;14.90;99.90
27858;DHT22;16852;51.446;6.528;2022-10-19T11:06:58;15.00;99.90
27858;DHT22;16852;51.446;6.528;2022-10-19T11:09:55;15.00;99.90
27858;DHT22;16852;51.446;6.528;2022-10-19T11:11:35;15.00;99.90
27858;DHT22;16852;51.446;6.528;2022-10-19T11:14:00;14.90;99.90
27858;DHT22;16852;51.446;6.528;2022-10-19T11:16:14;14.90;99.90
27858;DHT22;16852;51.446;6.528;2022-10-19T11:18:26;14.90;99.90
27858;DHT22;16852;51.446;6.528;2022-10-19T11:20:31;14.90;99.90
27858;DHT22;16852;51.446;6.528;2022-10-19T11:23:10;14.90;99.90
27858;DHT22;16852;51.446;6.528;2022-10-19T11:25:52;14.90;99.90
27858;DHT22;16852;51.446;6.528;2022-10-19T11:28:34;15.10;99.90
27858;DHT22;16852;51.446;6.528;2022-10-19T11:30:53;15.10;99.90
27858;DHT22;16852;51.446;6.528;2022-10-19T11:33:05;15.10;99.90
27858;DHT22;16852;51.446;6.528;2022-10-19T11:39:47;15.20;99.90
27858;DHT22;16852;51.446;6.528;2022-10-19T11:42:11;15.20;99.90
27858;DHT22;16852;51.446;6.528;2022-10-19T11:44:40;15.10;99.90
27858;DHT22;16852;51.446;6.528;2022-10-19T11:46:52;15.10;99.90
27858;DHT22;16852;51.446;6.528;2022-10-19T11:51:22;15.10;99.90
27858;DHT22;16852;51.446;6.528;2022-10-19T11:54:37;15.10;99.90
27858;DHT22;16852;51.446;6.528;2022-10-19T11:58:42;15.10;99.90
27858;DHT22;16852;51.446;6.528;2022-10-19T12:01:27;15.20;99.90
27858;DHT22;16852;51.446;6.528;2022-10-19T12:03:46;15.30;99.90
27858;DHT22;16852;51.446;6.528;2022-10-19T12:06:00;15.40;99.90
27858;DHT22;16852;51.446;6.528;2022-10-19T12:10:18;15.50;99.90
27858;DHT22;16852;51.446;6.528;2022-10-19T12:12:36;15.50;99.90
27858;DHT22;16852;51.446;6.528;2022-10-19T12:14:39;15.40;99.90
27858;DHT22;16852;51.446;6.528;2022-10-19T12:16:47;15.50;99.90
27858;DHT22;16852;51.446;6.528;2022-10-19T12:18:53;15.50;99.90
27858;DHT22;16852;51.446;6.528;2022-10-19T12:20:57;15.50;99.90
27858;DHT22;16852;51.446;6.528;2022-10-19T12:22:59;15.60;99.90
27858;DHT22;16852;51.446;6.528;2022-10-19T12:25:01;15.70;99.90
27858;DHT22;16852;51.446;6.528;2022-10-19T12:27:04;15.70;99.90
27858;DHT22;16852;51.446;6.528;2022-10-19T12:29:06;15.70;99.90
27858;DHT22;16852;51.446;6.528;2022-10-19T12:31:11;15.80;99.90
27858;DHT22;16852;51.446;6.528;2022-10-19T12:38:18;15.90;99.90
27858;DHT22;16852;51.446;6.528;2022-10-19T12:47:17;15.60;99.90
27858;DHT22;16852;51.446;6.528;2022-10-19T12:49:33;15.70;99.90
27858;DHT22;16852;51.446;6.528;2022-10-19T12:51:45;15.80;99.90
27858;DHT22;16852;51.446;6.528;2022-10-19T12:53:47;15.80;99.90
27858;DHT22;16852;51.446;6.528;2022-10-19T12:56:11;15.80;99.90
27858;DHT22;16852;51.446;6.528;2022-10-19T12:58:19;15.80;99.90
27858;DHT22;16852;51.446;6.528;2022-10-19T13:00:23;15.70;99.90
27858;DHT22;16852;51.446;6.528;2022-10-19T13:02:31;15.80;99.90
27858;DHT22;16852;51.446;6.528;2022-10-19T13:04:34;15.80;99.90
27858;DHT22;16852;51.446;6.528;2022-10-19T13:06:47;15.80;99.90
27858;DHT22;16852;51.446;6.528;2022-10-19T13:11:04;15.90;99.90
27858;DHT22;16852;51.446;6.528;2022-10-19T13:15:50;15.80;99.90
27858;DHT22;16852;51.446;6.528;2022-10-19T13:17:51;15.90;99.90
27858;DHT22;16852;51.446;6.528;2022-10-19T13:22:24;15.90;99.90
27858;DHT22;16852;51.446;6.528;2022-10-19T13:24:29;15.90;99.90
27858;DHT22;16852;51.446;6.528;2022-10-19T13:26:32;16.00;99.90
27858;DHT22;16852;51.446;6.528;2022-10-19T13:32:55;16.10;99.90
27858;DHT22;16852;51.446;6.528;2022-10-19T13:37:28;16.00;99.90
27858;DHT22;16852;51.446;6.528;2022-10-19T13:39:29;15.90;99.90
27858;DHT22;16852;51.446;6.528;2022-10-19T13:43:40;15.90;99.90
27858;DHT22;16852;51.446;6.528;2022-10-19T13:46:11;15.80;99.90
27858;DHT22;16852;51.446;6.528;2022-10-19T13:48:23;15.90;99.90
27858;DHT22;16852;51.446;6.528;2022-10-19T13:50:36;15.90;99.90
27858;DHT22;16852;51.446;6.528;2022-10-19T13:53:04;15.90;99.90
27858;DHT22;16852;51.446;6.528;2022-10-19T13:55:35;15.70;99.90
27858;DHT22;16852;51.446;6.528;2022-10-19T14:00:19;15.70;99.90
27858;DHT22;16852;51.446;6.528;2022-10-19T14:04:51;15.80;99.90
27858;DHT22;16852;51.446;6.528;2022-10-19T14:07:00;15.80;99.90
27858;DHT22;16852;51.446;6.528;2022-10-19T14:11:35;15.70;99.90
27858;DHT22;16852;51.446;6.528;2022-10-19T14:13:37;15.60;99.90
27858;DHT22;16852;51.446;6.528;2022-10-19T14:15:37;15.50;99.90
27858;DHT22;16852;51.446;6.528;2022-10-19T14:17:40;15.40;99.90
27858;DHT22;16852;51.446;6.528;2022-10-19T14:19:44;15.50;99.90
27858;DHT22;16852;51.446;6.528;2022-10-19T14:21:45;15.40;99.90
27858;DHT22;16852;51.446;6.528;2022-10-19T14:23:46;15.40;99.90
27858;DHT22;16852;51.446;6.528;2022-10-19T14:26:04;15.40;99.90
27858;DHT22;16852;51.446;6.528;2022-10-19T14:28:05;15.40;99.90
27858;DHT22;16852;51.446;6.528;2022-10-19T14:30:15;15.40;99.90
27858;DHT22;16852;51.446;6.528;2022-10-19T14:32:25;15.30;99.90
27858;DHT22;16852;51.446;6.528;2022-10-19T14:34:26;15.30;99.90